sensor_id;sensor_type;location;lat;lon;timestamp;pressure;altitude;pressure_sealevel;temperature;humidity
48154;BME280;33942;49.272;14.452;2022-09-03T12:34:33;96984.81;;;27.95;34.44
48154;BME280;33942;49.272;14.452;2022-09-03T12:37:01;96978.90;;;29.68;31.23
48154;BME280;33942;49.272;14.452;2022-09-03T12:39:28;96981.88;;;32.58;28.62
48154;BME280;33942;49.272;14.452;2022-09-03T12:41:59;96981.17;;;33.17;25.15
48154;BME280;33942;49.272;14.452;2022-09-03T12:44:29;96980.30;;;32.62;27.48
48154;BME280;33942;49.272;14.452;2022-09-03T12:47:03;96978.79;;;33.28;27.87
48154;BME280;33942;49.272;14.452;2022-09-03T12:49:35;96979.27;;;33.13;25.42
48154;BME280;33942;49.272;14.452;2022-09-03T12:52:07;96975.98;;;32.71;25.44
48154;BME280;33942;49.272;14.452;2022-09-03T12:54:43;96970.94;;;32.28;25.42
48154;BME280;33942;49.272;14.452;2022-09-03T12:57:18;96967.19;;;32.58;26.15
48154;BME280;33942;49.272;14.452;2022-09-03T12:59:47;96961.50;;;32.28;27.84
48154;BME280;33942;49.272;14.452;2022-09-03T13:02:19;96957.18;;;33.02;28.16
48154;BME280;33942;49.272;14.452;2022-09-03T13:04:50;96956.27;;;33.71;27.95
48154;BME280;33942;49.272;14.452;2022-09-03T13:07:23;96953.01;;;33.76;27.58
48154;BME280;33942;49.272;14.452;2022-09-03T13:09:59;96949.41;;;33.69;25.00
48154;BME280;33942;49.272;14.452;2022-09-03T13:12:30;96943.37;;;33.80;26.66
48154;BME280;33942;49.272;14.452;2022-09-03T13:15:06;96939.77;;;33.63;26.32
48154;BME280;33942;49.272;14.452;2022-09-03T13:17:47;96933.16;;;33.74;26.36
48154;BME280;33942;49.272;14.452;2022-09-03T13:20:29;96932.11;;;33.85;25.48
48154;BME280;33942;49.272;14.452;2022-09-03T13:23:11;96936.52;;;33.98;26.21
48154;BME280;33942;49.272;14.452;2022-09-03T13:25:48;96935.58;;;33.93;26.23
48154;BME280;33942;49.272;14.452;2022-09-03T13:28:28;96934.62;;;34.07;25.67
48154;BME280;33942;49.272;14.452;2022-09-03T13:31:06;96930.72;;;33.87;25.53
48154;BME280;33942;49.272;14.452;2022-09-03T13:33:39;96933.55;;;33.41;25.32
48154;BME280;33942;49.272;14.452;2022-09-03T13:36:12;96930.06;;;33.25;25.40
48154;BME280;33942;49.272;14.452;2022-09-03T13:38:48;96934.06;;;33.13;25.39
48154;BME280;33942;49.272;14.452;2022-09-03T13:41:25;96930.09;;;33.43;26.62
48154;BME280;33942;49.272;14.452;2022-09-03T13:44:01;96933.57;;;33.65;26.45
48154;BME280;33942;49.272;14.452;2022-09-03T13:46:34;96930.33;;;33.27;26.39
48154;BME280;33942;49.272;14.452;2022-09-03T13:49:12;96926.86;;;33.74;26.49
48154;BME280;33942;49.272;14.452;2022-09-03T13:51:48;96923.31;;;33.62;26.01
48154;BME280;33942;49.272;14.452;2022-09-03T13:54:21;96922.42;;;33.23;26.31
48154;BME280;33942;49.272;14.452;2022-09-03T13:56:54;96918.68;;;33.36;26.58
48154;BME280;33942;49.272;14.452;2022-09-03T13:59:30;96924.33;;;32.97;25.62
48154;BME280;33942;49.272;14.452;2022-09-03T14:02:15;96925.04;;;32.52;24.99
48154;BME280;33942;49.272;14.452;2022-09-03T14:04:57;96923.47;;;31.85;25.31
48154;BME280;33942;49.272;14.452;2022-09-03T14:07:43;96922.49;;;31.64;25.93
48154;BME280;33942;49.272;14.452;2022-09-03T14:10:22;96916.12;;;31.72;26.41
48154;BME280;33942;49.272;14.452;2022-09-03T14:12:59;96917.56;;;31.75;26.23
48154;BME280;33942;49.272;14.452;2022-09-03T14:15:32;96917.68;;;31.36;25.76
48154;BME280;33942;49.272;14.452;2022-09-03T14:18:12;96923.20;;;31.11;26.46
48154;BME280;33942;49.272;14.452;2022-09-03T14:20:46;96923.86;;;31.14;27.12
48154;BME280;33942;49.272;14.452;2022-09-03T14:23:26;96925.44;;;30.70;27.82
48154;BME280;33942;49.272;14.452;2022-09-03T14:26:02;96925.18;;;30.50;28.00
48154;BME280;33942;49.272;14.452;2022-09-03T14:28:34;96920.40;;;31.03;28.25
48154;BME280;33942;49.272;14.452;2022-09-03T14:31:10;96918.49;;;30.66;26.89
48154;BME280;33942;49.272;14.452;2022-09-03T14:33:47;96916.54;;;30.51;27.13
48154;BME280;33942;49.272;14.452;2022-09-03T14:36:26;96914.16;;;30.60;27.93
48154;BME280;33942;49.272;14.452;2022-09-03T14:39:06;96910.00;;;30.04;27.60
48154;BME280;33942;49.272;14.452;2022-09-03T14:41:52;96904.32;;;30.01;28.49
48154;BME280;33942;49.272;14.452;2022-09-03T14:44:35;96897.90;;;29.93;28.81
48154;BME280;33942;49.272;14.452;2022-09-03T14:47:19;96891.96;;;30.17;28.91
48154;BME280;33942;49.272;14.452;2022-09-03T14:50:06;96892.87;;;30.05;28.83
48154;BME280;33942;49.272;14.452;2022-09-03T14:52:51;96893.71;;;30.48;30.20
48154;BME280;33942;49.272;14.452;2022-09-03T14:55:30;96897.00;;;30.24;29.32
48154;BME280;33942;49.272;14.452;2022-09-03T14:58:17;96897.73;;;30.38;29.98
48154;BME280;33942;49.272;14.452;2022-09-03T15:00:51;96897.81;;;30.46;29.15
48154;BME280;33942;49.272;14.452;2022-09-03T15:03:51;96900.10;;;30.05;28.44
48154;BME280;33942;49.272;14.452;2022-09-03T15:06:31;96898.63;;;29.99;28.74
48154;BME280;33942;49.272;14.452;2022-09-03T15:09:15;96901.95;;;30.01;29.13
48154;BME280;33942;49.272;14.452;2022-09-03T15:11:48;96903.55;;;30.25;28.84
48154;BME280;33942;49.272;14.452;2022-09-03T15:14:24;96904.57;;;30.28;29.62
48154;BME280;33942;49.272;14.452;2022-09-03T15:16:58;96901.40;;;30.04;29.84
48154;BME280;33942;49.272;14.452;2022-09-03T15:19:42;96900.59;;;30.48;29.33
48154;BME280;33942;49.272;14.452;2022-09-03T15:22:24;96899.50;;;30.22;29.02
48154;BME280;33942;49.272;14.452;2022-09-03T15:24:59;96898.91;;;30.49;29.06
48154;BME280;33942;49.272;14.452;2022-09-03T15:27:47;96899.30;;;30.65;29.16
48154;BME280;33942;49.272;14.452;2022-09-03T15:30:19;96896.14;;;29.96;28.75
48154;BME280;33942;49.272;14.452;2022-09-03T15:32:56;96894.21;;;29.81;29.35
48154;BME280;33942;49.272;14.452;2022-09-03T15:35:40;96899.39;;;29.36;30.53
48154;BME280;33942;49.272;14.452;2022-09-03T15:38:18;96897.22;;;29.16;31.31
48154;BME280;33942;49.272;14.452;2022-09-03T15:40:50;96895.82;;;28.92;32.26
48154;BME280;33942;49.272;14.452;2022-09-03T15:43:24;96897.61;;;28.40;31.99
48154;BME280;33942;49.272;14.452;2022-09-03T15:45:53;96897.10;;;28.43;33.00
48154;BME280;33942;49.272;14.452;2022-09-03T15:48:27;96901.12;;;27.88;32.43
48154;BME280;33942;49.272;14.452;2022-09-03T15:51:07;96900.56;;;27.71;33.65
48154;BME280;33942;49.272;14.452;2022-09-03T15:53:43;96902.56;;;28.00;34.12
48154;BME280;33942;49.272;14.452;2022-09-03T15:56:19;96904.73;;;27.60;34.00
48154;BME280;33942;49.272;14.452;2022-09-03T15:58:55;96906.37;;;27.52;33.91
48154;BME280;33942;49.272;14.452;2022-09-03T16:01:31;96906.68;;;27.77;34.66
48154;BME280;33942;49.272;14.452;2022-09-03T16:04:18;96907.50;;;27.49;36.19
48154;BME280;33942;49.272;14.452;2022-09-03T16:06:55;96906.31;;;27.37;36.55
48154;BME280;33942;49.272;14.452;2022-09-03T16:09:35;96907.25;;;27.15;36.28
48154;BME280;33942;49.272;14.452;2022-09-03T16:12:15;96909.57;;;26.88;36.04
48154;BME280;33942;49.272;14.452;2022-09-03T16:14:50;96909.14;;;26.67;35.94
48154;BME280;33942;49.272;14.452;2022-09-03T16:17:27;96905.14;;;26.55;36.34
48154;BME280;33942;49.272;14.452;2022-09-03T16:20:03;96908.27;;;26.88;36.56
48154;BME280;33942;49.272;14.452;2022-09-03T16:22:37;96909.40;;;26.48;36.71
48154;BME280;33942;49.272;14.452;2022-09-03T16:25:10;96907.17;;;26.36;36.94
48154;BME280;33942;49.272;14.452;2022-09-03T16:27:45;96904.61;;;26.27;38.38
48154;BME280;33942;49.272;14.452;2022-09-03T16:30:32;96904.35;;;26.44;38.52
48154;BME280;33942;49.272;14.452;2022-09-03T16:33:07;96906.48;;;25.87;39.49
48154;BME280;33942;49.272;14.452;2022-09-03T16:35:43;96901.33;;;26.15;40.85
48154;BME280;33942;49.272;14.452;2022-09-03T16:38:24;96902.79;;;25.84;41.93
48154;BME280;33942;49.272;14.452;2022-09-03T16:40:58;96910.01;;;25.99;42.16
48154;BME280;33942;49.272;14.452;2022-09-03T16:43:35;96911.67;;;25.66;42.55
48154;BME280;33942;49.272;14.452;2022-09-03T16:46:17;96910.42;;;25.77;42.56
